Time;durP1;ratioP1;P1;durP2;ratioP2;P2;SDS_P1;SDS_P2;PMS_P1;PMS_P2;Temp;Humidity;BMP_temperature;BMP_pressure;BME280_temperature;BME280_humidity;BME280_pressure;Samples;Min_cycle;Max_cycle;Signal;HPM_P1;HPM_P2
2022/07/05 00:01:00;;;;;;;2.92;2.72;;;12.60;99.90;;;;;;4933238;29;20095;-77
2022/07/05 00:03:27;;;;;;;4.35;3.30;;;12.70;99.90;;;;;;4942018;28;20379;-79
2022/07/05 00:05:53;;;;;;;4.00;3.00;;;12.70;99.90;;;;;;4936855;28;20117;-77
2022/07/05 00:08:19;;;;;;;3.42;2.47;;;12.80;99.90;;;;;;4938810;28;20023;-77
2022/07/05 00:10:44;;;;;;;3.17;2.47;;;12.90;99.90;;;;;;4941147;29;20039;-78
2022/07/05 00:13:10;;;;;;;3.83;2.75;;;12.90;99.90;;;;;;4940248;29;20483;-78
2022/07/05 00:15:36;;;;;;;7.65;2.45;;;12.90;99.90;;;;;;4939539;28;20038;-78
2022/07/05 00:18:02;;;;;;;3.08;2.55;;;12.90;99.90;;;;;;4936942;28;20038;-77
2022/07/05 00:20:28;;;;;;;3.40;2.60;;;12.90;99.90;;;;;;4941545;28;20031;-78
2022/07/05 00:22:54;;;;;;;5.43;2.70;;;12.90;99.90;;;;;;4940283;28;20471;-78
2022/07/05 00:25:20;;;;;;;4.28;3.15;;;13.00;99.90;;;;;;4922365;29;20035;-78
2022/07/05 00:27:46;;;;;;;4.95;2.80;;;13.00;99.90;;;;;;4941535;29;20031;-78
2022/07/05 00:30:12;;;;;;;3.15;2.40;;;13.00;99.90;;;;;;4941067;28;20138;-78
2022/07/05 00:32:38;;;;;;;3.97;2.97;;;13.10;99.90;;;;;;4939606;28;20134;-78
2022/07/05 00:35:05;;;;;;;6.68;2.95;;;13.20;99.90;;;;;;4917360;29;20119;-78
2022/07/05 00:37:31;;;;;;;3.55;2.60;;;13.30;99.90;;;;;;4940328;29;20035;-77
2022/07/05 00:39:57;;;;;;;2.42;2.22;;;13.30;99.90;;;;;;4940812;28;20035;-79
2022/07/05 00:42:22;;;;;;;3.17;2.83;;;13.40;99.90;;;;;;4939743;28;20041;-78
2022/07/05 00:44:48;;;;;;;3.58;2.60;;;13.40;99.90;;;;;;4940208;28;20182;-78
2022/07/05 00:47:14;;;;;;;2.80;2.53;;;13.40;99.90;;;;;;4939009;29;20055;-78
2022/07/05 00:49:41;;;;;;;3.85;2.60;;;13.40;99.90;;;;;;4941838;28;20031;-77
2022/07/05 00:52:07;;;;;;;3.13;2.78;;;13.40;99.90;;;;;;4939166;29;20043;-78
2022/07/05 00:54:36;;;;;;;3.75;3.03;;;13.40;99.90;;;;;;4937261;28;20578;-78
2022/07/05 00:57:02;;;;;;;3.25;2.95;;;13.40;99.90;;;;;;4941649;28;20523;-78
2022/07/05 00:59:29;;;;;;;4.38;2.90;;;13.30;99.90;;;;;;4940951;28;20023;-78
2022/07/05 01:01:55;;;;;;;5.28;2.75;;;13.30;99.90;;;;;;4940874;29;20027;-77
2022/07/05 01:04:21;;;;;;;3.72;2.80;;;13.30;99.90;;;;;;4937485;29;20665;-78
2022/07/05 01:06:48;;;;;;;5.07;3.35;;;13.20;99.90;;;;;;4939461;29;20035;-78
2022/07/05 01:09:16;;;;;;;4.63;2.92;;;13.20;99.90;;;;;;4940793;28;20074;-78
2022/07/05 01:11:49;;;;;;;3.47;3.15;;;13.10;99.90;;;;;;4939519;29;20534;-78
2022/07/05 01:14:20;;;;;;;4.95;3.00;;;13.00;99.90;;;;;;4939631;29;20576;-78
2022/07/05 01:16:48;;;;;;;3.50;2.90;;;12.90;99.90;;;;;;4939788;28;20065;-78
2022/07/05 01:19:14;;;;;;;4.85;3.15;;;12.80;99.90;;;;;;4932177;28;20074;-78
2022/07/05 01:21:42;;;;;;;5.60;3.50;;;12.80;99.90;;;;;;4940721;28;20777;-78
2022/07/05 01:24:13;;;;;;;5.00;3.08;;;12.70;99.90;;;;;;4942540;28;20061;-79
2022/07/05 01:26:39;;;;;;;3.45;3.15;;;12.70;99.90;;;;;;4939474;29;20058;-78
2022/07/05 01:29:06;;;;;;;4.32;3.63;;;12.70;99.90;;;;;;4943237;28;20040;-79
2022/07/05 01:31:32;;;;;;;5.50;3.83;;;12.70;99.90;;;;;;4946078;28;20497;-78
2022/07/05 01:33:58;;;;;;;4.78;3.00;;;12.70;99.90;;;;;;4921340;29;20027;-77
2022/07/05 01:36:24;;;;;;;5.63;3.47;;;12.60;99.90;;;;;;4940974;28;20058;-78
2022/07/05 01:38:50;;;;;;;4.07;3.25;;;12.60;99.90;;;;;;4941339;29;20037;-78
2022/07/05 01:41:16;;;;;;;5.57;3.58;;;12.50;99.90;;;;;;4942926;29;20075;-78
2022/07/05 01:43:42;;;;;;;6.20;3.72;;;12.40;99.90;;;;;;4944188;29;20027;-78
2022/07/05 01:46:10;;;;;;;6.63;4.18;;;12.30;99.90;;;;;;4947093;28;20566;-78
2022/07/05 01:48:39;;;;;;;4.50;3.92;;;12.20;99.90;;;;;;4937657;28;20345;-78
2022/07/05 01:51:06;;;;;;;7.00;3.83;;;12.10;99.90;;;;;;4937239;28;20047;-78
2022/07/05 01:53:33;;;;;;;7.85;3.58;;;12.10;99.90;;;;;;4944524;28;20059;-78
2022/07/05 01:56:00;;;;;;;5.95;4.22;;;12.00;99.90;;;;;;4941767;28;20034;-78
2022/07/05 01:58:26;;;;;;;6.18;4.03;;;11.90;99.90;;;;;;4939343;28;20031;-78
2022/07/05 02:00:54;;;;;;;4.78;3.95;;;11.90;99.90;;;;;;4941131;28;20038;-78
2022/07/05 02:03:20;;;;;;;6.80;3.67;;;11.80;99.90;;;;;;4941134;29;20035;-78
2022/07/05 02:05:47;;;;;;;4.70;3.92;;;11.70;99.90;;;;;;4943501;28;20029;-78
2022/07/05 02:08:14;;;;;;;4.07;3.67;;;11.60;99.90;;;;;;4943137;28;20039;-78
2022/07/05 02:10:41;;;;;;;7.28;4.07;;;11.60;99.90;;;;;;4941682;28;20031;-79
2022/07/05 02:13:07;;;;;;;7.78;4.15;;;11.50;99.90;;;;;;4941109;28;20954;-76
2022/07/05 02:15:34;;;;;;;7.20;4.50;;;11.40;99.90;;;;;;4949276;28;20042;-77
2022/07/05 02:18:01;;;;;;;5.13;4.63;;;11.40;99.90;;;;;;4960305;28;20182;-78
2022/07/05 02:20:28;;;;;;;5.63;4.35;;;11.40;99.90;;;;;;4940877;28;20499;-77
2022/07/05 02:22:54;;;;;;;4.45;4.00;;;11.30;99.90;;;;;;4940366;28;20023;-78
2022/07/05 02:25:20;;;;;;;5.90;4.30;;;11.30;99.90;;;;;;4940293;28;20031;-78
2022/07/05 02:27:46;;;;;;;7.18;4.60;;;11.20;99.90;;;;;;4944868;28;20036;-78
2022/07/05 02:30:12;;;;;;;5.20;4.38;;;11.20;99.90;;;;;;4926359;29;20035;-76
2022/07/05 02:32:37;;;;;;;4.95;4.45;;;11.20;99.90;;;;;;4945291;28;20137;-78
2022/07/05 02:35:05;;;;;;;5.72;4.25;;;11.20;99.90;;;;;;4940416;28;20035;-78
2022/07/05 02:37:30;;;;;;;5.78;4.03;;;11.20;99.90;;;;;;4954169;28;20142;-78
2022/07/05 02:39:56;;;;;;;6.25;4.30;;;11.20;99.90;;;;;;4945080;28;20106;-77
2022/07/05 02:42:22;;;;;;;7.38;4.50;;;11.30;99.90;;;;;;4956534;28;20126;-78
2022/07/05 02:44:48;;;;;;;6.97;5.00;;;11.30;99.90;;;;;;4945760;28;20343;-78
2022/07/05 02:47:13;;;;;;;6.20;4.88;;;11.30;99.90;;;;;;4944599;28;20231;-78
2022/07/05 02:49:39;;;;;;;8.00;4.60;;;11.30;99.90;;;;;;4938709;28;20664;-78
2022/07/05 02:52:05;;;;;;;6.65;4.50;;;11.20;99.90;;;;;;4937575;29;20046;-78
2022/07/05 02:54:30;;;;;;;5.85;4.80;;;11.20;99.90;;;;;;4941344;28;20843;-78
2022/07/05 02:56:57;;;;;;;6.55;4.72;;;11.20;99.90;;;;;;4942819;28;20031;-78
2022/07/05 02:59:22;;;;;;;5.40;4.65;;;11.10;99.90;;;;;;4940462;28;20031;-77
2022/07/05 03:01:48;;;;;;;6.97;4.45;;;11.10;99.90;;;;;;4941865;29;20034;-78
2022/07/05 03:04:14;;;;;;;6.93;5.10;;;11.00;99.90;;;;;;4919607;29;20034;-78
2022/07/05 03:06:39;;;;;;;7.15;4.50;;;11.00;99.90;;;;;;4933473;28;20066;-78
2022/07/05 03:09:05;;;;;;;5.88;4.90;;;11.00;99.90;;;;;;4932441;29;20039;-78
2022/07/05 03:11:31;;;;;;;8.18;5.10;;;10.90;99.90;;;;;;4933067;29;20090;-77
2022/07/05 03:13:56;;;;;;;7.75;4.90;;;10.90;99.90;;;;;;4939110;29;20383;-77
2022/07/05 03:16:23;;;;;;;8.32;4.72;;;10.80;99.90;;;;;;4941337;28;20039;-78
2022/07/05 03:18:50;;;;;;;6.78;4.72;;;10.80;99.90;;;;;;4940709;29;20122;-78
2022/07/05 03:21:15;;;;;;;6.90;4.90;;;10.80;99.90;;;;;;4942321;28;20035;-78
2022/07/05 03:23:41;;;;;;;7.07;4.45;;;10.70;99.90;;;;;;4940348;28;20597;-78
2022/07/05 03:26:07;;;;;;;8.75;4.72;;;10.70;99.90;;;;;;4941663;29;20023;-78
2022/07/05 03:28:33;;;;;;;8.77;4.88;;;10.60;99.90;;;;;;4940391;29;20034;-78
2022/07/05 03:30:58;;;;;;;7.30;4.95;;;10.60;99.90;;;;;;4941327;29;20098;-78
2022/07/05 03:33:24;;;;;;;8.00;4.95;;;10.60;99.90;;;;;;4941457;29;20085;-78
2022/07/05 03:35:50;;;;;;;8.18;5.45;;;10.60;99.90;;;;;;4941224;28;20377;-78
2022/07/05 03:38:16;;;;;;;6.45;4.97;;;10.50;99.90;;;;;;4924617;29;20498;-78
2022/07/05 03:40:42;;;;;;;8.60;5.50;;;10.50;99.90;;;;;;4941376;29;20323;-77
2022/07/05 03:43:08;;;;;;;9.10;5.38;;;10.50;99.90;;;;;;4928309;29;20375;-77
2022/07/05 03:45:34;;;;;;;5.85;4.60;;;10.50;99.90;;;;;;4940982;28;20027;-78
2022/07/05 03:48:00;;;;;;;6.22;5.13;;;10.40;99.90;;;;;;4940780;29;20043;-77
2022/07/05 03:50:26;;;;;;;9.02;6.13;;;10.40;99.90;;;;;;4941410;29;20083;-78
2022/07/05 03:52:52;;;;;;;6.50;5.57;;;10.40;99.90;;;;;;4928534;29;20160;-79
2022/07/05 03:55:18;;;;;;;7.80;5.18;;;10.40;99.90;;;;;;4930844;29;20547;-76
2022/07/05 03:57:44;;;;;;;7.43;5.32;;;10.30;99.90;;;;;;4937657;28;20482;-77
2022/07/05 04:00:10;;;;;;;6.43;5.22;;;10.30;99.90;;;;;;4940426;29;20031;-78
2022/07/05 04:02:35;;;;;;;7.10;5.05;;;10.30;99.90;;;;;;4936422;28;20054;-78
2022/07/05 04:05:01;;;;;;;5.82;5.28;;;10.30;99.90;;;;;;4939272;29;20487;-78
2022/07/05 04:07:27;;;;;;;7.05;5.25;;;10.20;99.90;;;;;;4935967;28;20164;-78
2022/07/05 04:09:53;;;;;;;7.05;5.40;;;10.20;99.90;;;;;;4937418;28;20057;-78
2022/07/05 04:12:18;;;;;;;9.57;5.82;;;10.20;99.90;;;;;;4921075;29;20050;-77
2022/07/05 04:14:44;;;;;;;9.90;6.22;;;10.20;99.90;;;;;;4940575;29;20113;-77
2022/07/05 04:17:10;;;;;;;9.57;5.35;;;10.20;99.90;;;;;;4934865;29;20107;-79
2022/07/05 04:19:35;;;;;;;9.05;5.82;;;10.20;99.90;;;;;;4937330;29;20545;-77
2022/07/05 04:22:01;;;;;;;8.63;5.72;;;10.20;99.90;;;;;;4938802;29;20067;-78
2022/07/05 04:24:27;;;;;;;7.05;5.53;;;10.20;99.90;;;;;;4940392;28;20134;-78
2022/07/05 04:26:53;;;;;;;7.57;5.65;;;10.20;99.90;;;;;;4940950;28;20031;-77
2022/07/05 04:29:18;;;;;;;7.35;5.57;;;10.20;99.90;;;;;;4938015;29;20057;-78
2022/07/05 04:31:44;;;;;;;8.30;5.38;;;10.20;99.90;;;;;;4935168;28;20614;-78
2022/07/05 04:34:10;;;;;;;7.32;5.13;;;10.20;99.90;;;;;;4928950;29;20027;-77
2022/07/05 04:36:36;;;;;;;8.20;4.90;;;10.20;99.90;;;;;;4923848;29;20046;-78
2022/07/05 04:39:04;;;;;;;8.05;5.13;;;10.20;99.90;;;;;;4919148;29;20181;-78
2022/07/05 04:41:29;;;;;;;6.60;4.93;;;10.20;99.90;;;;;;4937978;28;20145;-78
2022/07/05 04:43:55;;;;;;;9.02;5.03;;;10.20;99.90;;;;;;4940711;28;20114;-78
2022/07/05 04:46:21;;;;;;;6.38;5.78;;;10.20;99.90;;;;;;4940359;28;20051;-78
2022/07/05 04:48:46;;;;;;;7.35;4.80;;;10.10;99.90;;;;;;4938355;29;20355;-77
2022/07/05 04:51:12;;;;;;;6.80;5.40;;;10.10;99.90;;;;;;4940765;28;20051;-78
2022/07/05 04:53:38;;;;;;;9.07;5.35;;;10.20;99.90;;;;;;4939225;29;20457;-77
2022/07/05 04:56:05;;;;;;;7.07;5.00;;;10.20;99.90;;;;;;4941893;28;20043;-76
2022/07/05 04:58:30;;;;;;;8.55;5.88;;;10.30;99.90;;;;;;4924195;29;20090;-78
2022/07/05 05:00:56;;;;;;;5.85;4.93;;;10.30;99.90;;;;;;4937391;28;20039;-78
2022/07/05 05:03:22;;;;;;;9.32;6.38;;;10.40;99.90;;;;;;4936354;28;20097;-78
2022/07/05 05:05:47;;;;;;;8.20;5.03;;;10.40;99.90;;;;;;4932740;28;20032;-78
2022/07/05 05:08:13;;;;;;;6.88;5.05;;;10.40;99.90;;;;;;4916150;29;20118;-77
2022/07/05 05:10:39;;;;;;;8.52;5.00;;;10.40;99.90;;;;;;4941544;29;20498;-77
2022/07/05 05:13:05;;;;;;;8.25;5.05;;;10.50;99.90;;;;;;4940896;29;20034;-76
2022/07/05 05:15:30;;;;;;;7.50;5.00;;;10.60;99.90;;;;;;4938296;28;20027;-78
2022/07/05 05:17:56;;;;;;;7.95;4.70;;;10.60;99.90;;;;;;4937050;29;20391;-78
2022/07/05 05:20:22;;;;;;;5.78;4.53;;;10.70;99.90;;;;;;4941927;29;20077;-78
2022/07/05 05:22:48;;;;;;;6.53;5.18;;;10.80;99.90;;;;;;4942208;29;20353;-77
2022/07/05 05:25:14;;;;;;;7.30;5.22;;;10.80;99.90;;;;;;4938206;28;20035;-78
2022/07/05 05:27:42;;;;;;;4.88;4.30;;;10.90;99.90;;;;;;4938130;28;20098;-78
2022/07/05 05:30:08;;;;;;;7.65;4.90;;;10.90;99.90;;;;;;4943700;29;20031;-77
2022/07/05 05:32:33;;;;;;;5.15;4.07;;;11.00;99.90;;;;;;4939811;29;20119;-78
2022/07/05 05:34:59;;;;;;;8.73;4.25;;;11.10;99.90;;;;;;4939781;29;20113;-78
2022/07/05 05:37:25;;;;;;;7.18;4.90;;;11.10;99.90;;;;;;4942923;28;20636;-77
2022/07/05 05:39:50;;;;;;;5.68;3.95;;;11.20;99.90;;;;;;4943513;29;20467;-76
2022/07/05 05:42:16;;;;;;;6.65;3.70;;;11.30;99.90;;;;;;4942485;28;20031;-76
2022/07/05 05:44:41;;;;;;;4.88;3.65;;;11.40;99.90;;;;;;4932078;28;20141;-77
2022/07/05 05:47:07;;;;;;;5.32;3.90;;;11.40;99.90;;;;;;4943424;29;20383;-77
2022/07/05 05:49:33;;;;;;;7.15;4.25;;;11.50;99.90;;;;;;4942567;29;20111;-77
2022/07/05 05:51:58;;;;;;;6.88;4.03;;;11.50;99.90;;;;;;4942738;28;20130;-77
2022/07/05 05:54:24;;;;;;;7.68;4.35;;;11.60;99.90;;;;;;4941182;28;20034;-77
2022/07/05 05:56:50;;;;;;;5.45;3.33;;;11.70;99.90;;;;;;4942447;29;20039;-77
2022/07/05 05:59:15;;;;;;;5.93;3.95;;;11.80;99.90;;;;;;4946219;28;20451;-77
2022/07/05 06:01:41;;;;;;;4.18;2.97;;;11.90;99.90;;;;;;4596151;28;10000106;-77
2022/07/05 06:04:07;;;;;;;4.38;3.08;;;12.00;99.90;;;;;;4935265;28;20075;-77
2022/07/05 06:06:32;;;;;;;329.85;207.40;;;12.10;99.90;;;;;;4939461;28;20110;-77
2022/07/05 06:08:58;;;;;;;56.60;32.83;;;12.10;99.90;;;;;;4924437;28;20749;-76
2022/07/05 06:11:23;;;;;;;8.15;4.97;;;12.20;99.90;;;;;;4938060;28;20043;-77
2022/07/05 06:13:49;;;;;;;10.38;9.55;;;12.30;99.90;;;;;;4938246;29;20878;-77
2022/07/05 06:16:15;;;;;;;7.22;3.40;;;12.40;99.90;;;;;;4939009;28;20118;-76
2022/07/05 06:18:41;;;;;;;8.75;3.13;;;12.40;99.90;;;;;;4939821;29;20740;-78
2022/07/05 06:21:06;;;;;;;3.97;2.40;;;12.60;99.90;;;;;;4932541;28;20459;-78
2022/07/05 06:23:32;;;;;;;102.85;68.22;;;12.60;99.90;;;;;;4929371;28;20034;-78
2022/07/05 06:25:58;;;;;;;8.43;5.82;;;12.70;99.90;;;;;;4933451;28;20660;-77
2022/07/05 06:28:23;;;;;;;5.95;3.10;;;12.80;99.90;;;;;;4938020;28;20028;-78
2022/07/05 06:30:49;;;;;;;4.65;3.30;;;12.90;99.90;;;;;;4938695;28;20065;-78
2022/07/05 06:33:15;;;;;;;7.80;3.00;;;13.00;99.90;;;;;;4942168;28;20047;-79
2022/07/05 06:35:40;;;;;;;3.60;1.83;;;13.10;99.90;;;;;;4940056;28;20431;-79
2022/07/05 06:38:08;;;;;;;3.72;2.33;;;13.20;99.90;;;;;;4940454;28;20061;-79
2022/07/05 06:40:36;;;;;;;2.17;1.45;;;13.30;99.90;;;;;;4937101;28;20062;-79
2022/07/05 06:43:03;;;;;;;4.65;2.45;;;13.40;99.90;;;;;;4912096;28;20031;-79
2022/07/05 06:45:29;;;;;;;5.30;3.20;;;13.60;99.90;;;;;;4915402;28;20039;-79
2022/07/05 06:47:56;;;;;;;5.13;2.67;;;13.70;99.90;;;;;;4930313;28;20490;-78
2022/07/05 06:50:22;;;;;;;4.63;2.20;;;13.70;99.90;;;;;;4946597;28;20062;-78
2022/07/05 06:52:47;;;;;;;3.65;1.40;;;13.80;99.90;;;;;;4926549;28;20130;-78
2022/07/05 06:55:13;;;;;;;79.47;45.65;;;13.90;99.90;;;;;;4926571;28;20023;-78
2022/07/05 06:57:39;;;;;;;7.90;3.78;;;14.00;99.90;;;;;;4942062;28;20149;-78
2022/07/05 07:00:05;;;;;;;3.47;1.55;;;14.10;99.90;;;;;;4928708;28;20114;-78
2022/07/05 07:02:31;;;;;;;2.30;1.80;;;14.20;99.90;;;;;;4928991;28;20031;-78
2022/07/05 07:04:57;;;;;;;5.00;1.55;;;14.40;99.90;;;;;;4926604;28;20035;-78
2022/07/05 07:10:07;;;;;;;6.45;3.88;;;14.60;99.90;;;;;;4925313;28;20065;-81
2022/07/05 07:12:32;;;;;;;4.78;1.77;;;14.70;99.90;;;;;;4930822;28;20035;-81
2022/07/05 07:14:58;;;;;;;3.20;1.52;;;14.80;99.90;;;;;;4936610;28;20023;-78
2022/07/05 07:17:24;;;;;;;5.28;1.20;;;14.90;99.90;;;;;;4938682;28;20185;-80
2022/07/05 07:19:50;;;;;;;3.42;1.52;;;15.00;99.90;;;;;;4926459;28;20590;-78
2022/07/05 07:22:16;;;;;;;3.63;1.35;;;15.00;99.90;;;;;;4927885;28;20562;-79
2022/07/05 07:24:42;;;;;;;9.23;1.80;;;15.20;99.90;;;;;;4923051;28;20123;-80
2022/07/05 07:27:08;;;;;;;181.93;104.80;;;15.30;99.90;;;;;;4926737;28;20055;-81
2022/07/05 07:29:38;;;;;;;15.30;9.90;;;15.50;99.90;;;;;;4932404;28;20240;-80
2022/07/05 07:32:05;;;;;;;3.00;1.95;;;15.60;99.90;;;;;;4915189;28;20054;-80
2022/07/05 07:34:31;;;;;;;5.32;1.55;;;15.80;99.90;;;;;;4925219;28;20687;-79
2022/07/05 07:36:57;;;;;;;2.10;0.77;;;17.70;99.90;;;;;;4929182;28;20102;-78
2022/07/05 07:39:24;;;;;;;2.33;0.90;;;21.70;99.90;;;;;;4925615;28;21796;-78
2022/07/05 07:41:50;;;;;;;3.00;0.82;;;24.50;85.50;;;;;;4932754;28;20094;-78
2022/07/05 07:44:16;;;;;;;2.55;0.90;;;27.20;61.20;;;;;;4912778;28;20035;-79
2022/07/05 07:46:42;;;;;;;2.70;0.82;;;29.70;49.30;;;;;;4914649;28;20043;-79
2022/07/05 07:49:09;;;;;;;4.25;1.10;;;31.00;43.30;;;;;;4926537;28;20055;-79
2022/07/05 07:51:37;;;;;;;1.52;0.77;;;32.30;39.80;;;;;;4931028;28;20039;-79
2022/07/05 07:54:02;;;;;;;2.45;0.63;;;32.40;37.30;;;;;;4933420;28;20030;-78
2022/07/05 07:56:28;;;;;;;1.98;0.60;;;34.20;36.00;;;;;;4936741;28;20514;-81
2022/07/05 07:58:54;;;;;;;2.78;0.90;;;34.60;34.30;;;;;;4936227;28;20037;-79
2022/07/05 08:01:20;;;;;;;1.05;0.50;;;34.60;33.60;;;;;;4923795;28;22215;-80
2022/07/05 08:03:46;;;;;;;4.25;0.73;;;34.30;31.80;;;;;;4924291;28;20042;-80
2022/07/05 08:06:13;;;;;;;3.67;1.00;;;35.20;33.20;;;;;;4899296;29;20536;-80
2022/07/05 08:08:40;;;;;;;2.90;0.80;;;36.70;32.70;;;;;;4932622;28;20042;-80
2022/07/05 08:11:08;;;;;;;2.80;0.63;;;38.10;30.50;;;;;;4932803;28;20035;-79
2022/07/05 08:13:34;;;;;;;1.55;0.55;;;37.70;29.10;;;;;;4933873;28;20108;-82
2022/07/05 08:16:01;;;;;;;5.43;0.80;;;39.00;29.30;;;;;;4932256;28;20030;-75
2022/07/05 08:23:55;;;;;;;2.17;0.75;;;39.90;28.70;;;;;;4923218;28;20127;-76
2022/07/05 08:26:21;;;;;;;3.00;0.70;;;37.80;29.10;;;;;;4926644;28;20019;-76
2022/07/05 08:28:48;;;;;;;2.85;0.50;;;37.20;30.10;;;;;;4925389;28;20408;-77
2022/07/05 08:31:14;;;;;;;3.78;0.60;;;37.60;30.10;;;;;;4914287;28;20587;-78
2022/07/05 08:33:39;;;;;;;4.90;0.70;;;36.00;31.40;;;;;;4934375;28;20599;-77
2022/07/05 08:36:06;;;;;;;3.78;0.40;;;34.60;30.00;;;;;;4930148;28;20042;-78
2022/07/05 08:38:31;;;;;;;4.82;0.50;;;33.80;33.50;;;;;;4937308;28;20126;-78
2022/07/05 08:40:57;;;;;;;2.25;0.40;;;34.10;34.60;;;;;;4937014;29;20035;-77
2022/07/05 08:43:24;;;;;;;2.58;0.60;;;35.80;33.50;;;;;;4935209;28;20620;-80
2022/07/05 08:45:52;;;;;;;0.70;0.32;;;37.90;30.40;;;;;;4935275;29;20220;-76
2022/07/05 08:48:20;;;;;;;1.98;0.55;;;37.20;29.60;;;;;;4929327;28;20058;-77
2022/07/05 08:50:49;;;;;;;2.53;0.38;;;34.60;31.70;;;;;;4932912;28;20050;-78
2022/07/05 08:53:21;;;;;;;0.65;0.32;;;32.70;32.90;;;;;;4935546;28;20562;-73
2022/07/05 08:55:47;;;;;;;0.60;0.40;;;33.40;32.80;;;;;;4586680;28;10000280;-78
2022/07/05 08:58:13;;;;;;;2.47;0.28;;;34.80;33.20;;;;;;4932435;28;20046;-78
2022/07/05 09:00:42;;;;;;;4.22;0.98;;;34.30;33.30;;;;;;4932987;28;20111;-78
2022/07/05 09:03:07;;;;;;;3.92;0.90;;;31.10;33.30;;;;;;4931862;28;20463;-79
2022/07/05 09:05:43;;;;;;;1.40;0.40;;;33.00;35.00;;;;;;4939735;28;20031;-80
2022/07/05 09:08:12;;;;;;;1.23;0.40;;;34.50;32.80;;;;;;4917878;28;20375;-81
2022/07/05 09:10:41;;;;;;;3.03;0.60;;;36.00;29.90;;;;;;4936172;28;20052;-80
2022/07/05 09:13:07;;;;;;;2.85;0.22;;;36.90;28.30;;;;;;4923829;28;20094;-79
2022/07/05 09:15:32;;;;;;;3.33;0.50;;;36.90;29.10;;;;;;4922561;28;20023;-77
2022/07/05 09:17:58;;;;;;;6.50;0.73;;;35.10;29.60;;;;;;4922006;28;20090;-78
2022/07/05 09:20:26;;;;;;;0.88;0.50;;;34.40;31.10;;;;;;4907546;28;20038;-78
2022/07/05 09:22:54;;;;;;;1.77;0.55;;;35.00;32.00;;;;;;4926233;28;20031;-79
2022/07/05 09:25:21;;;;;;;1.45;0.50;;;35.50;27.60;;;;;;4926600;28;20114;-80
2022/07/05 09:27:54;;;;;;;0.63;0.40;;;35.90;30.00;;;;;;4930225;28;20039;-83
2022/07/05 09:30:31;;;;;;;2.58;0.85;;;35.90;32.70;;;;;;4934248;28;20038;-80
2022/07/05 09:33:14;;;;;;;1.20;0.55;;;35.70;29.60;;;;;;4937280;28;20058;-79
2022/07/05 09:35:42;;;;;;;3.42;0.60;;;35.20;28.50;;;;;;4935756;28;20923;-79
2022/07/05 09:38:19;;;;;;;3.05;0.73;;;33.40;30.30;;;;;;4949458;28;20035;-78
2022/07/05 09:40:55;;;;;;;1.75;0.70;;;33.10;32.50;;;;;;4936225;28;20059;-77
2022/07/05 09:43:23;;;;;;;16.75;1.25;;;30.80;34.50;;;;;;4938955;28;20035;-77
2022/07/05 09:45:53;;;;;;;1.85;1.00;;;30.40;36.50;;;;;;4937277;28;20042;-78
2022/07/05 09:48:18;;;;;;;1.70;0.70;;;30.00;37.70;;;;;;4940845;28;20158;-79
2022/07/05 09:50:45;;;;;;;2.08;0.93;;;31.40;35.60;;;;;;4935688;29;20134;-79
2022/07/05 09:53:13;;;;;;;2.38;0.85;;;32.70;34.10;;;;;;4939047;29;20039;-79
2022/07/05 09:55:40;;;;;;;4.35;1.33;;;33.30;31.90;;;;;;4936131;28;20023;-78
2022/07/05 09:58:07;;;;;;;3.28;1.17;;;33.70;32.50;;;;;;4919986;28;20035;-78
2022/07/05 10:00:33;;;;;;;6.65;1.95;;;34.10;30.00;;;;;;4937022;29;20031;-77
2022/07/05 10:03:01;;;;;;;1.10;1.00;;;34.20;30.90;;;;;;4935492;29;20102;-78
2022/07/05 10:05:29;;;;;;;2.10;1.23;;;33.90;32.00;;;;;;4934668;28;20087;-76
2022/07/05 10:08:00;;;;;;;3.90;1.73;;;33.30;33.50;;;;;;4936818;28;20042;-73
2022/07/05 10:10:35;;;;;;;4.05;2.00;;;33.10;33.20;;;;;;4934764;28;20113;-75
2022/07/05 10:13:05;;;;;;;5.97;1.60;;;31.90;34.60;;;;;;4933776;28;20399;-77
2022/07/05 10:15:35;;;;;;;3.23;1.40;;;32.30;34.70;;;;;;4931981;28;20063;-77
2022/07/05 10:18:10;;;;;;;4.47;1.75;;;32.80;31.80;;;;;;4937140;28;20094;-73
2022/07/05 10:20:45;;;;;;;16.67;2.42;;;30.90;35.50;;;;;;4939191;28;20144;-73
2022/07/05 10:23:15;;;;;;;2.75;1.50;;;29.10;37.30;;;;;;4935258;28;20023;-77
2022/07/05 10:25:44;;;;;;;5.40;1.90;;;27.70;38.60;;;;;;4918317;29;20066;-77
2022/07/05 10:28:10;;;;;;;1.83;1.70;;;26.30;38.40;;;;;;4936583;28;20035;-77
2022/07/05 10:30:37;;;;;;;6.07;1.40;;;25.30;41.90;;;;;;4917250;29;20039;-77
2022/07/05 10:33:06;;;;;;;1.67;1.13;;;26.30;50.40;;;;;;4933316;28;20054;-77
2022/07/05 10:35:32;;;;;;;2.38;1.67;;;28.60;47.10;;;;;;4941766;28;20094;-77
2022/07/05 10:38:02;;;;;;;8.27;1.88;;;30.20;39.00;;;;;;4929681;28;20522;-77
2022/07/05 10:40:31;;;;;;;1.63;1.10;;;30.40;36.10;;;;;;4937988;28;20027;-78
2022/07/05 10:43:01;;;;;;;3.95;1.10;;;29.40;38.90;;;;;;4938990;28;20042;-78
2022/07/05 10:45:38;;;;;;;3.60;1.48;;;29.80;37.40;;;;;;4940439;28;20756;-76
2022/07/05 10:48:10;;;;;;;4.30;1.05;;;29.80;36.50;;;;;;4933983;28;20050;-77
2022/07/05 10:50:50;;;;;;;10.82;2.05;;;29.70;42.00;;;;;;4941027;29;20551;-78
2022/07/05 10:53:23;;;;;;;2.40;1.52;;;30.40;38.10;;;;;;4937639;28;20038;-77
2022/07/05 10:55:59;;;;;;;2.50;1.98;;;31.30;38.00;;;;;;4934894;28;20027;-77
2022/07/05 10:58:41;;;;;;;4.43;3.13;;;30.60;35.90;;;;;;4926011;28;20031;-77
2022/07/05 11:01:19;;;;;;;4.05;2.40;;;30.10;36.50;;;;;;4936219;28;20083;-77
2022/07/05 11:04:00;;;;;;;4.13;2.45;;;29.70;38.00;;;;;;4935031;29;20098;-77
2022/07/05 11:06:33;;;;;;;2.70;2.38;;;30.50;37.00;;;;;;4939702;28;20030;-78
2022/07/05 11:08:59;;;;;;;4.82;2.25;;;31.50;39.40;;;;;;4936665;28;20558;-77
2022/07/05 11:11:27;;;;;;;2.92;1.40;;;31.40;38.20;;;;;;4922225;29;20132;-76
2022/07/05 11:13:55;;;;;;;2.45;1.77;;;31.50;34.70;;;;;;4935135;28;20034;-77
2022/07/05 11:16:23;;;;;;;2.42;1.60;;;31.00;35.50;;;;;;4932151;28;20118;-77
2022/07/05 11:19:12;;;;;;;2.00;1.48;;;28.80;37.40;;;;;;4915971;29;20027;-78
2022/07/05 11:22:00;;;;;;;3.53;1.50;;;27.80;38.80;;;;;;4932927;28;20446;-78
2022/07/05 11:24:28;;;;;;;5.53;1.88;;;26.60;41.90;;;;;;4930630;28;20158;-77
2022/07/05 11:26:58;;;;;;;2.97;1.58;;;25.80;44.30;;;;;;4935757;28;20061;-77
2022/07/05 11:29:41;;;;;;;4.53;1.90;;;26.00;49.80;;;;;;4936517;28;20479;-76
2022/07/05 11:32:11;;;;;;;2.75;1.60;;;27.70;42.20;;;;;;4919977;29;20047;-77
2022/07/05 11:34:37;;;;;;;2.20;1.30;;;28.00;41.30;;;;;;4935976;28;20043;-76
2022/07/05 11:37:34;;;;;;;7.85;2.00;;;27.50;43.00;;;;;;4936106;28;20035;-76
2022/07/05 11:40:14;;;;;;;2.53;2.28;;;26.80;47.20;;;;;;4931475;28;20042;-76
2022/07/05 11:42:47;;;;;;;11.90;3.33;;;26.40;44.50;;;;;;4934178;28;20073;-75
2022/07/05 11:45:14;;;;;;;11.55;3.63;;;26.10;43.70;;;;;;4938084;29;20066;-75
2022/07/05 11:47:40;;;;;;;5.85;3.40;;;26.40;46.90;;;;;;4938987;28;20043;-76
2022/07/05 11:50:07;;;;;;;8.70;5.53;;;26.40;47.10;;;;;;4916307;28;20325;-78
2022/07/05 11:52:34;;;;;;;10.27;6.93;;;26.50;45.50;;;;;;4935389;29;20042;-76
2022/07/05 11:55:02;;;;;;;12.18;9.32;;;26.60;51.70;;;;;;4934003;29;20020;-75
2022/07/05 11:57:28;;;;;;;12.77;9.50;;;26.70;46.20;;;;;;4935999;28;20027;-76
2022/07/05 11:59:54;;;;;;;19.90;15.30;;;27.20;50.80;;;;;;4927413;28;20039;-77
2022/07/05 12:02:20;;;;;;;19.40;16.67;;;27.20;45.50;;;;;;4930589;28;20255;-75
2022/07/05 12:04:50;;;;;;;21.90;18.30;;;27.10;46.60;;;;;;4931007;28;20023;-76
2022/07/05 12:07:29;;;;;;;26.83;20.40;;;26.80;45.10;;;;;;4935598;28;20191;-76
2022/07/05 12:12:42;;;;;;;36.20;25.90;;;26.60;46.00;;;;;;4936806;28;20053;-76
2022/07/05 12:15:12;;;;;;;45.42;36.38;;;26.80;48.10;;;;;;4938597;28;20149;-76
2022/07/05 12:17:40;;;;;;;44.15;31.50;;;26.30;44.10;;;;;;4938807;28;20058;-75
2022/07/05 12:20:09;;;;;;;39.80;31.40;;;25.80;47.60;;;;;;4938033;28;20063;-76
2022/07/05 12:22:40;;;;;;;56.67;43.58;;;26.10;51.10;;;;;;4947888;28;20041;-76
2022/07/05 12:25:09;;;;;;;56.08;43.83;;;26.30;48.50;;;;;;4933614;28;20109;-75
2022/07/05 12:27:37;;;;;;;57.72;45.47;;;26.50;49.00;;;;;;4928248;28;20419;-76
2022/07/05 12:30:05;;;;;;;55.33;42.85;;;27.00;47.30;;;;;;4935017;28;20041;-76
2022/07/05 12:32:31;;;;;;;50.80;41.17;;;27.30;41.50;;;;;;4933199;28;20050;-77
2022/07/05 12:34:58;;;;;;;52.92;42.17;;;27.20;44.10;;;;;;4913426;29;20444;-75
2022/07/05 12:37:24;;;;;;;51.83;42.42;;;27.20;49.10;;;;;;4935930;28;20086;-76
2022/07/05 12:40:08;;;;;;;52.92;43.35;;;27.20;47.40;;;;;;4935005;28;20273;-77
2022/07/05 12:42:38;;;;;;;55.75;41.20;;;27.30;47.30;;;;;;4930109;28;20392;-76
2022/07/05 12:45:18;;;;;;;45.65;32.58;;;27.20;51.20;;;;;;4930541;28;20736;-77
2022/07/05 12:47:50;;;;;;;35.53;23.27;;;27.80;45.80;;;;;;4932585;28;20051;-76
2022/07/05 12:50:15;;;;;;;20.35;15.00;;;28.00;46.20;;;;;;4933387;28;20054;-76
2022/07/05 12:58:48;;;;;;;41.60;27.70;;;28.40;43.80;;;;;;4925037;28;20043;-77
2022/07/05 13:01:40;;;;;;;39.40;26.98;;;27.70;45.20;;;;;;4929062;28;20042;-77
2022/07/05 13:04:09;;;;;;;42.40;22.63;;;27.00;46.50;;;;;;4927972;28;20044;-78